sensor_id;sensor_type;location;lat;lon;timestamp;P1;durP1;ratioP1;P2;durP2;ratioP2
34489;SDS011;20730;49.372;7.324;2023-04-08T00:01:02;27.92;;;15.15;;
34489;SDS011;20730;49.372;7.324;2023-04-08T00:03:29;29.17;;;15.07;;
34489;SDS011;20730;49.372;7.324;2023-04-08T00:05:56;29.98;;;15.00;;
34489;SDS011;20730;49.372;7.324;2023-04-08T00:08:23;26.35;;;14.02;;
34489;SDS011;20730;49.372;7.324;2023-04-08T00:10:50;28.52;;;14.75;;
34489;SDS011;20730;49.372;7.324;2023-04-08T00:13:16;28.02;;;14.15;;
34489;SDS011;20730;49.372;7.324;2023-04-08T00:15:43;27.70;;;14.07;;
34489;SDS011;20730;49.372;7.324;2023-04-08T00:18:10;29.83;;;14.52;;
34489;SDS011;20730;49.372;7.324;2023-04-08T00:20:39;28.58;;;14.88;;
34489;SDS011;20730;49.372;7.324;2023-04-08T00:23:05;28.88;;;14.27;;
34489;SDS011;20730;49.372;7.324;2023-04-08T00:25:32;26.75;;;14.80;;
34489;SDS011;20730;49.372;7.324;2023-04-08T00:27:59;30.05;;;14.38;;
34489;SDS011;20730;49.372;7.324;2023-04-08T00:30:26;28.35;;;15.43;;
34489;SDS011;20730;49.372;7.324;2023-04-08T00:32:53;26.67;;;14.68;;
34489;SDS011;20730;49.372;7.324;2023-04-08T00:35:20;29.35;;;15.60;;
34489;SDS011;20730;49.372;7.324;2023-04-08T00:37:47;26.02;;;13.75;;
34489;SDS011;20730;49.372;7.324;2023-04-08T00:40:15;29.25;;;15.20;;
34489;SDS011;20730;49.372;7.324;2023-04-08T00:42:41;26.25;;;14.25;;
34489;SDS011;20730;49.372;7.324;2023-04-08T00:45:08;29.10;;;15.32;;
34489;SDS011;20730;49.372;7.324;2023-04-08T00:47:36;28.33;;;15.50;;
34489;SDS011;20730;49.372;7.324;2023-04-08T00:50:04;31.15;;;15.50;;
34489;SDS011;20730;49.372;7.324;2023-04-08T00:52:33;35.58;;;16.02;;
34489;SDS011;20730;49.372;7.324;2023-04-08T00:55:00;31.40;;;16.52;;
34489;SDS011;20730;49.372;7.324;2023-04-08T00:57:27;29.02;;;15.23;;
34489;SDS011;20730;49.372;7.324;2023-04-08T00:59:54;25.30;;;13.50;;
34489;SDS011;20730;49.372;7.324;2023-04-08T01:02:25;23.02;;;13.70;;
34489;SDS011;20730;49.372;7.324;2023-04-08T01:05:04;23.10;;;13.15;;
34489;SDS011;20730;49.372;7.324;2023-04-08T01:07:33;25.02;;;13.57;;
34489;SDS011;20730;49.372;7.324;2023-04-08T01:10:04;23.38;;;13.77;;
34489;SDS011;20730;49.372;7.324;2023-04-08T01:12:41;26.25;;;14.48;;
34489;SDS011;20730;49.372;7.324;2023-04-08T01:15:10;27.25;;;14.85;;
34489;SDS011;20730;49.372;7.324;2023-04-08T01:17:38;27.60;;;15.38;;
34489;SDS011;20730;49.372;7.324;2023-04-08T01:20:05;31.05;;;15.27;;
34489;SDS011;20730;49.372;7.324;2023-04-08T01:25:11;29.58;;;15.95;;
34489;SDS011;20730;49.372;7.324;2023-04-08T01:27:44;31.50;;;17.38;;
34489;SDS011;20730;49.372;7.324;2023-04-08T01:30:13;33.10;;;16.08;;
34489;SDS011;20730;49.372;7.324;2023-04-08T01:32:44;31.52;;;16.48;;
34489;SDS011;20730;49.372;7.324;2023-04-08T01:35:12;34.83;;;16.92;;
34489;SDS011;20730;49.372;7.324;2023-04-08T01:37:41;31.35;;;15.45;;
34489;SDS011;20730;49.372;7.324;2023-04-08T01:40:08;30.33;;;15.25;;
34489;SDS011;20730;49.372;7.324;2023-04-08T01:42:36;36.08;;;16.67;;
34489;SDS011;20730;49.372;7.324;2023-04-08T01:45:04;29.33;;;15.73;;
34489;SDS011;20730;49.372;7.324;2023-04-08T01:47:32;35.33;;;16.00;;
34489;SDS011;20730;49.372;7.324;2023-04-08T01:49:59;35.63;;;16.05;;
34489;SDS011;20730;49.372;7.324;2023-04-08T01:52:27;34.30;;;17.35;;
34489;SDS011;20730;49.372;7.324;2023-04-08T01:54:54;29.63;;;16.27;;
34489;SDS011;20730;49.372;7.324;2023-04-08T01:57:23;31.58;;;15.00;;
34489;SDS011;20730;49.372;7.324;2023-04-08T01:59:51;32.33;;;15.77;;
34489;SDS011;20730;49.372;7.324;2023-04-08T02:02:19;33.20;;;15.63;;
34489;SDS011;20730;49.372;7.324;2023-04-08T02:04:47;32.15;;;15.60;;
34489;SDS011;20730;49.372;7.324;2023-04-08T02:07:15;33.10;;;15.95;;
34489;SDS011;20730;49.372;7.324;2023-04-08T02:09:42;30.65;;;15.95;;
34489;SDS011;20730;49.372;7.324;2023-04-08T02:12:09;32.10;;;16.55;;
34489;SDS011;20730;49.372;7.324;2023-04-08T02:14:37;35.70;;;16.45;;
34489;SDS011;20730;49.372;7.324;2023-04-08T02:17:08;34.88;;;17.83;;
34489;SDS011;20730;49.372;7.324;2023-04-08T02:20:25;34.88;;;17.05;;
34489;SDS011;20730;49.372;7.324;2023-04-08T02:25:21;29.92;;;15.65;;
34489;SDS011;20730;49.372;7.324;2023-04-08T02:27:49;32.75;;;16.83;;
34489;SDS011;20730;49.372;7.324;2023-04-08T02:30:17;32.25;;;16.85;;
34489;SDS011;20730;49.372;7.324;2023-04-08T02:32:46;33.97;;;16.20;;
34489;SDS011;20730;49.372;7.324;2023-04-08T02:35:14;33.65;;;17.33;;
34489;SDS011;20730;49.372;7.324;2023-04-08T02:37:41;37.60;;;18.17;;
34489;SDS011;20730;49.372;7.324;2023-04-08T02:40:23;41.40;;;17.67;;
34489;SDS011;20730;49.372;7.324;2023-04-08T02:42:52;39.50;;;17.92;;
34489;SDS011;20730;49.372;7.324;2023-04-08T02:45:19;43.40;;;18.52;;
34489;SDS011;20730;49.372;7.324;2023-04-08T02:47:48;45.47;;;18.30;;
34489;SDS011;20730;49.372;7.324;2023-04-08T02:50:15;37.33;;;18.35;;
34489;SDS011;20730;49.372;7.324;2023-04-08T02:52:42;36.33;;;18.02;;
34489;SDS011;20730;49.372;7.324;2023-04-08T02:55:10;40.55;;;17.58;;
34489;SDS011;20730;49.372;7.324;2023-04-08T02:57:40;40.92;;;18.52;;
34489;SDS011;20730;49.372;7.324;2023-04-08T03:00:08;41.78;;;19.17;;
34489;SDS011;20730;49.372;7.324;2023-04-08T03:02:35;39.55;;;18.05;;
34489;SDS011;20730;49.372;7.324;2023-04-08T03:05:02;42.63;;;19.90;;
34489;SDS011;20730;49.372;7.324;2023-04-08T03:07:31;38.22;;;17.48;;
34489;SDS011;20730;49.372;7.324;2023-04-08T03:09:58;37.78;;;17.38;;
34489;SDS011;20730;49.372;7.324;2023-04-08T03:12:25;40.67;;;18.40;;
34489;SDS011;20730;49.372;7.324;2023-04-08T03:14:55;44.78;;;19.23;;
34489;SDS011;20730;49.372;7.324;2023-04-08T03:17:23;40.17;;;19.23;;
34489;SDS011;20730;49.372;7.324;2023-04-08T03:19:50;38.95;;;18.45;;
34489;SDS011;20730;49.372;7.324;2023-04-08T03:22:17;40.58;;;18.08;;
34489;SDS011;20730;49.372;7.324;2023-04-08T03:24:44;44.47;;;18.80;;
34489;SDS011;20730;49.372;7.324;2023-04-08T03:27:12;45.05;;;18.63;;
34489;SDS011;20730;49.372;7.324;2023-04-08T03:29:39;40.17;;;17.88;;
34489;SDS011;20730;49.372;7.324;2023-04-08T03:32:06;40.95;;;19.45;;
34489;SDS011;20730;49.372;7.324;2023-04-08T03:34:34;48.72;;;19.55;;
34489;SDS011;20730;49.372;7.324;2023-04-08T03:37:01;41.35;;;18.55;;
34489;SDS011;20730;49.372;7.324;2023-04-08T03:39:28;39.08;;;17.55;;
34489;SDS011;20730;49.372;7.324;2023-04-08T03:41:55;41.92;;;17.23;;
34489;SDS011;20730;49.372;7.324;2023-04-08T03:44:22;33.90;;;16.92;;
34489;SDS011;20730;49.372;7.324;2023-04-08T03:46:49;34.38;;;17.25;;
34489;SDS011;20730;49.372;7.324;2023-04-08T03:49:16;36.72;;;17.77;;
34489;SDS011;20730;49.372;7.324;2023-04-08T03:51:43;43.78;;;19.50;;
34489;SDS011;20730;49.372;7.324;2023-04-08T03:54:10;46.72;;;19.83;;
34489;SDS011;20730;49.372;7.324;2023-04-08T03:56:37;41.22;;;19.38;;
34489;SDS011;20730;49.372;7.324;2023-04-08T03:59:03;45.58;;;20.15;;
34489;SDS011;20730;49.372;7.324;2023-04-08T04:01:30;44.25;;;20.48;;
34489;SDS011;20730;49.372;7.324;2023-04-08T04:03:57;48.97;;;21.30;;
34489;SDS011;20730;49.372;7.324;2023-04-08T04:06:25;46.47;;;20.80;;
34489;SDS011;20730;49.372;7.324;2023-04-08T04:08:53;46.72;;;20.60;;
34489;SDS011;20730;49.372;7.324;2023-04-08T04:11:22;46.27;;;20.50;;
34489;SDS011;20730;49.372;7.324;2023-04-08T04:13:49;44.25;;;20.60;;
34489;SDS011;20730;49.372;7.324;2023-04-08T04:16:16;44.42;;;19.15;;
34489;SDS011;20730;49.372;7.324;2023-04-08T04:18:43;45.53;;;21.23;;
34489;SDS011;20730;49.372;7.324;2023-04-08T04:21:11;46.53;;;19.65;;
34489;SDS011;20730;49.372;7.324;2023-04-08T04:23:37;48.33;;;20.60;;
34489;SDS011;20730;49.372;7.324;2023-04-08T04:26:08;45.80;;;21.17;;
34489;SDS011;20730;49.372;7.324;2023-04-08T04:28:36;46.72;;;21.30;;
34489;SDS011;20730;49.372;7.324;2023-04-08T04:31:03;46.60;;;22.15;;
34489;SDS011;20730;49.372;7.324;2023-04-08T04:33:30;49.08;;;21.80;;
34489;SDS011;20730;49.372;7.324;2023-04-08T04:35:57;47.97;;;20.30;;
34489;SDS011;20730;49.372;7.324;2023-04-08T04:38:24;49.35;;;21.77;;
34489;SDS011;20730;49.372;7.324;2023-04-08T04:40:52;51.30;;;22.48;;
34489;SDS011;20730;49.372;7.324;2023-04-08T04:43:19;49.60;;;22.05;;
34489;SDS011;20730;49.372;7.324;2023-04-08T04:45:46;48.90;;;22.13;;
34489;SDS011;20730;49.372;7.324;2023-04-08T04:48:13;51.90;;;22.42;;
34489;SDS011;20730;49.372;7.324;2023-04-08T04:50:40;50.67;;;22.50;;
34489;SDS011;20730;49.372;7.324;2023-04-08T04:53:07;49.67;;;22.77;;
34489;SDS011;20730;49.372;7.324;2023-04-08T04:55:34;52.20;;;22.65;;
34489;SDS011;20730;49.372;7.324;2023-04-08T04:58:04;53.15;;;23.40;;
34489;SDS011;20730;49.372;7.324;2023-04-08T05:00:32;52.78;;;22.42;;
34489;SDS011;20730;49.372;7.324;2023-04-08T05:02:58;52.60;;;22.77;;
34489;SDS011;20730;49.372;7.324;2023-04-08T05:05:26;49.30;;;22.27;;
34489;SDS011;20730;49.372;7.324;2023-04-08T05:07:52;56.55;;;24.08;;
34489;SDS011;20730;49.372;7.324;2023-04-08T05:10:19;54.08;;;23.88;;
34489;SDS011;20730;49.372;7.324;2023-04-08T05:12:46;55.78;;;23.48;;
34489;SDS011;20730;49.372;7.324;2023-04-08T05:15:13;47.50;;;22.45;;
34489;SDS011;20730;49.372;7.324;2023-04-08T05:17:40;53.45;;;23.60;;
34489;SDS011;20730;49.372;7.324;2023-04-08T05:20:07;48.38;;;22.42;;
34489;SDS011;20730;49.372;7.324;2023-04-08T05:22:34;46.97;;;22.40;;
34489;SDS011;20730;49.372;7.324;2023-04-08T05:25:01;52.67;;;23.15;;
34489;SDS011;20730;49.372;7.324;2023-04-08T05:27:28;50.35;;;22.52;;
34489;SDS011;20730;49.372;7.324;2023-04-08T05:29:56;49.00;;;23.83;;
34489;SDS011;20730;49.372;7.324;2023-04-08T05:32:23;50.60;;;23.05;;
34489;SDS011;20730;49.372;7.324;2023-04-08T05:34:50;48.80;;;22.10;;
34489;SDS011;20730;49.372;7.324;2023-04-08T05:37:17;54.63;;;22.27;;
34489;SDS011;20730;49.372;7.324;2023-04-08T05:39:44;51.28;;;23.70;;
34489;SDS011;20730;49.372;7.324;2023-04-08T05:42:11;50.30;;;23.52;;
34489;SDS011;20730;49.372;7.324;2023-04-08T05:44:39;49.95;;;22.58;;
34489;SDS011;20730;49.372;7.324;2023-04-08T05:47:09;43.28;;;21.35;;
34489;SDS011;20730;49.372;7.324;2023-04-08T05:49:36;47.95;;;22.52;;
34489;SDS011;20730;49.372;7.324;2023-04-08T05:52:03;47.72;;;22.08;;
34489;SDS011;20730;49.372;7.324;2023-04-08T05:54:31;54.60;;;23.55;;
34489;SDS011;20730;49.372;7.324;2023-04-08T05:56:58;49.63;;;23.35;;
34489;SDS011;20730;49.372;7.324;2023-04-08T05:59:25;47.75;;;23.73;;
34489;SDS011;20730;49.372;7.324;2023-04-08T06:01:53;48.58;;;21.27;;
34489;SDS011;20730;49.372;7.324;2023-04-08T06:04:20;45.40;;;22.85;;
34489;SDS011;20730;49.372;7.324;2023-04-08T06:06:48;44.00;;;21.63;;
34489;SDS011;20730;49.372;7.324;2023-04-08T06:09:14;50.20;;;21.73;;
34489;SDS011;20730;49.372;7.324;2023-04-08T06:11:41;45.78;;;21.30;;
34489;SDS011;20730;49.372;7.324;2023-04-08T06:14:08;46.50;;;22.00;;
34489;SDS011;20730;49.372;7.324;2023-04-08T06:16:35;42.58;;;21.17;;
34489;SDS011;20730;49.372;7.324;2023-04-08T06:19:02;42.67;;;21.33;;
34489;SDS011;20730;49.372;7.324;2023-04-08T06:21:29;42.13;;;21.02;;
34489;SDS011;20730;49.372;7.324;2023-04-08T06:23:56;43.55;;;21.40;;
34489;SDS011;20730;49.372;7.324;2023-04-08T06:26:23;44.90;;;21.10;;
34489;SDS011;20730;49.372;7.324;2023-04-08T06:28:50;40.67;;;20.30;;
34489;SDS011;20730;49.372;7.324;2023-04-08T06:31:17;41.00;;;20.90;;
34489;SDS011;20730;49.372;7.324;2023-04-08T06:33:45;41.45;;;20.30;;
34489;SDS011;20730;49.372;7.324;2023-04-08T06:36:12;38.50;;;19.73;;
34489;SDS011;20730;49.372;7.324;2023-04-08T06:38:39;43.58;;;20.95;;
34489;SDS011;20730;49.372;7.324;2023-04-08T06:41:06;41.92;;;21.50;;
34489;SDS011;20730;49.372;7.324;2023-04-08T06:43:34;46.17;;;22.08;;
34489;SDS011;20730;49.372;7.324;2023-04-08T06:46:02;42.47;;;22.25;;
34489;SDS011;20730;49.372;7.324;2023-04-08T06:48:29;40.28;;;21.23;;
34489;SDS011;20730;49.372;7.324;2023-04-08T06:50:57;40.28;;;21.55;;
34489;SDS011;20730;49.372;7.324;2023-04-08T06:53:25;41.67;;;21.85;;
34489;SDS011;20730;49.372;7.324;2023-04-08T06:55:52;44.00;;;21.63;;
34489;SDS011;20730;49.372;7.324;2023-04-08T06:58:19;41.75;;;21.27;;
34489;SDS011;20730;49.372;7.324;2023-04-08T07:00:46;41.00;;;20.15;;
34489;SDS011;20730;49.372;7.324;2023-04-08T07:03:13;39.65;;;20.92;;
34489;SDS011;20730;49.372;7.324;2023-04-08T07:05:40;37.67;;;21.30;;
34489;SDS011;20730;49.372;7.324;2023-04-08T07:08:07;44.35;;;22.60;;
34489;SDS011;20730;49.372;7.324;2023-04-08T07:10:34;38.92;;;20.45;;
34489;SDS011;20730;49.372;7.324;2023-04-08T07:13:02;44.25;;;20.90;;
34489;SDS011;20730;49.372;7.324;2023-04-08T07:15:28;42.60;;;22.15;;
34489;SDS011;20730;49.372;7.324;2023-04-08T07:17:56;40.33;;;20.00;;
34489;SDS011;20730;49.372;7.324;2023-04-08T07:20:24;38.65;;;21.13;;
34489;SDS011;20730;49.372;7.324;2023-04-08T07:22:51;37.72;;;20.48;;
34489;SDS011;20730;49.372;7.324;2023-04-08T07:25:18;40.58;;;21.42;;
34489;SDS011;20730;49.372;7.324;2023-04-08T07:27:45;44.72;;;21.52;;
34489;SDS011;20730;49.372;7.324;2023-04-08T07:30:12;37.08;;;20.60;;
34489;SDS011;20730;49.372;7.324;2023-04-08T07:32:39;36.58;;;19.00;;
34489;SDS011;20730;49.372;7.324;2023-04-08T07:35:06;37.90;;;20.55;;
34489;SDS011;20730;49.372;7.324;2023-04-08T07:37:33;35.45;;;22.98;;
34489;SDS011;20730;49.372;7.324;2023-04-08T07:40:01;31.05;;;18.63;;
34489;SDS011;20730;49.372;7.324;2023-04-08T07:42:28;36.55;;;21.60;;
34489;SDS011;20730;49.372;7.324;2023-04-08T07:44:54;30.55;;;18.90;;
34489;SDS011;20730;49.372;7.324;2023-04-08T07:47:21;30.40;;;18.75;;
34489;SDS011;20730;49.372;7.324;2023-04-08T07:49:48;30.92;;;17.85;;
34489;SDS011;20730;49.372;7.324;2023-04-08T07:52:15;29.90;;;18.10;;
34489;SDS011;20730;49.372;7.324;2023-04-08T07:54:43;31.30;;;17.52;;
34489;SDS011;20730;49.372;7.324;2023-04-08T07:57:10;30.30;;;18.20;;
34489;SDS011;20730;49.372;7.324;2023-04-08T07:59:37;34.10;;;18.35;;
34489;SDS011;20730;49.372;7.324;2023-04-08T08:02:05;33.15;;;19.13;;
34489;SDS011;20730;49.372;7.324;2023-04-08T08:04:32;32.50;;;18.23;;
34489;SDS011;20730;49.372;7.324;2023-04-08T08:07:00;30.17;;;18.40;;
34489;SDS011;20730;49.372;7.324;2023-04-08T08:09:26;28.92;;;17.33;;
34489;SDS011;20730;49.372;7.324;2023-04-08T08:11:55;26.65;;;17.23;;
34489;SDS011;20730;49.372;7.324;2023-04-08T08:14:22;29.27;;;17.80;;
34489;SDS011;20730;49.372;7.324;2023-04-08T08:16:50;28.83;;;18.05;;
34489;SDS011;20730;49.372;7.324;2023-04-08T08:19:18;29.55;;;19.13;;
34489;SDS011;20730;49.372;7.324;2023-04-08T08:21:46;28.42;;;16.88;;
34489;SDS011;20730;49.372;7.324;2023-04-08T08:24:14;29.20;;;17.83;;
34489;SDS011;20730;49.372;7.324;2023-04-08T08:26:42;26.83;;;16.58;;
34489;SDS011;20730;49.372;7.324;2023-04-08T08:29:11;28.25;;;17.23;;
34489;SDS011;20730;49.372;7.324;2023-04-08T08:31:37;27.40;;;17.23;;
34489;SDS011;20730;49.372;7.324;2023-04-08T08:34:05;29.58;;;17.90;;
34489;SDS011;20730;49.372;7.324;2023-04-08T08:36:32;28.52;;;18.10;;
34489;SDS011;20730;49.372;7.324;2023-04-08T08:39:00;27.73;;;17.85;;
34489;SDS011;20730;49.372;7.324;2023-04-08T08:41:31;26.63;;;17.35;;
34489;SDS011;20730;49.372;7.324;2023-04-08T08:44:01;27.75;;;17.08;;
34489;SDS011;20730;49.372;7.324;2023-04-08T08:46:29;31.27;;;18.33;;
34489;SDS011;20730;49.372;7.324;2023-04-08T08:48:57;31.05;;;18.85;;
34489;SDS011;20730;49.372;7.324;2023-04-08T08:51:24;29.33;;;18.38;;
34489;SDS011;20730;49.372;7.324;2023-04-08T08:53:53;26.92;;;18.00;;
34489;SDS011;20730;49.372;7.324;2023-04-08T08:56:20;30.45;;;19.80;;
34489;SDS011;20730;49.372;7.324;2023-04-08T08:58:50;25.25;;;17.13;;
34489;SDS011;20730;49.372;7.324;2023-04-08T09:01:30;28.67;;;17.77;;
34489;SDS011;20730;49.372;7.324;2023-04-08T09:04:09;26.17;;;20.58;;
34489;SDS011;20730;49.372;7.324;2023-04-08T09:06:38;28.90;;;20.02;;
34489;SDS011;20730;49.372;7.324;2023-04-08T09:09:06;26.60;;;18.17;;
34489;SDS011;20730;49.372;7.324;2023-04-08T09:11:37;24.67;;;16.50;;
34489;SDS011;20730;49.372;7.324;2023-04-08T09:14:16;32.33;;;20.75;;
34489;SDS011;20730;49.372;7.324;2023-04-08T09:16:50;26.27;;;18.00;;
34489;SDS011;20730;49.372;7.324;2023-04-08T09:19:17;25.75;;;17.83;;
34489;SDS011;20730;49.372;7.324;2023-04-08T09:21:45;27.10;;;18.73;;
34489;SDS011;20730;49.372;7.324;2023-04-08T09:24:29;24.52;;;17.77;;
34489;SDS011;20730;49.372;7.324;2023-04-08T09:26:56;30.92;;;17.90;;
34489;SDS011;20730;49.372;7.324;2023-04-08T09:29:23;26.00;;;17.65;;
34489;SDS011;20730;49.372;7.324;2023-04-08T09:32:00;25.20;;;16.95;;
34489;SDS011;20730;49.372;7.324;2023-04-08T09:34:27;25.52;;;16.98;;
34489;SDS011;20730;49.372;7.324;2023-04-08T09:36:56;26.65;;;17.83;;
34489;SDS011;20730;49.372;7.324;2023-04-08T09:39:23;26.60;;;17.63;;
34489;SDS011;20730;49.372;7.324;2023-04-08T09:41:50;26.98;;;17.98;;
34489;SDS011;20730;49.372;7.324;2023-04-08T09:44:18;24.13;;;17.63;;
34489;SDS011;20730;49.372;7.324;2023-04-08T09:54:20;25.88;;;17.00;;
34489;SDS011;20730;49.372;7.324;2023-04-08T09:56:50;26.50;;;17.65;;
34489;SDS011;20730;49.372;7.324;2023-04-08T09:59:23;21.85;;;15.98;;
34489;SDS011;20730;49.372;7.324;2023-04-08T10:01:53;24.25;;;16.90;;
34489;SDS011;20730;49.372;7.324;2023-04-08T10:04:21;23.13;;;16.42;;
34489;SDS011;20730;49.372;7.324;2023-04-08T10:06:51;24.40;;;17.83;;
34489;SDS011;20730;49.372;7.324;2023-04-08T10:09:23;27.23;;;17.33;;
34489;SDS011;20730;49.372;7.324;2023-04-08T10:11:50;23.52;;;16.75;;
34489;SDS011;20730;49.372;7.324;2023-04-08T10:14:18;22.85;;;16.73;;
34489;SDS011;20730;49.372;7.324;2023-04-08T10:16:47;24.90;;;17.40;;
34489;SDS011;20730;49.372;7.324;2023-04-08T10:22:49;25.35;;;17.92;;
34489;SDS011;20730;49.372;7.324;2023-04-08T10:27:43;32.08;;;23.00;;
34489;SDS011;20730;49.372;7.324;2023-04-08T10:33:03;22.98;;;15.95;;
34489;SDS011;20730;49.372;7.324;2023-04-08T10:35:46;18.98;;;15.48;;
34489;SDS011;20730;49.372;7.324;2023-04-08T10:38:14;19.98;;;15.48;;
34489;SDS011;20730;49.372;7.324;2023-04-08T10:40:42;20.48;;;15.32;;
34489;SDS011;20730;49.372;7.324;2023-04-08T10:43:10;24.17;;;16.27;;
34489;SDS011;20730;49.372;7.324;2023-04-08T10:45:38;19.15;;;15.23;;
34489;SDS011;20730;49.372;7.324;2023-04-08T10:50:39;21.50;;;16.55;;
34489;SDS011;20730;49.372;7.324;2023-04-08T10:53:06;20.80;;;16.20;;
34489;SDS011;20730;49.372;7.324;2023-04-08T10:55:34;21.10;;;15.57;;
34489;SDS011;20730;49.372;7.324;2023-04-08T10:58:04;23.73;;;16.48;;
34489;SDS011;20730;49.372;7.324;2023-04-08T11:03:02;22.92;;;17.20;;
34489;SDS011;20730;49.372;7.324;2023-04-08T11:05:30;22.73;;;16.33;;
34489;SDS011;20730;49.372;7.324;2023-04-08T11:07:58;23.77;;;16.30;;
34489;SDS011;20730;49.372;7.324;2023-04-08T11:10:26;22.48;;;17.17;;
34489;SDS011;20730;49.372;7.324;2023-04-08T11:12:54;22.15;;;16.23;;
34489;SDS011;20730;49.372;7.324;2023-04-08T11:15:22;22.17;;;16.23;;
34489;SDS011;20730;49.372;7.324;2023-04-08T11:17:50;24.48;;;17.00;;
34489;SDS011;20730;49.372;7.324;2023-04-08T11:20:17;24.20;;;16.58;;
34489;SDS011;20730;49.372;7.324;2023-04-08T11:22:44;22.98;;;15.35;;
34489;SDS011;20730;49.372;7.324;2023-04-08T11:25:12;21.55;;;15.45;;
34489;SDS011;20730;49.372;7.324;2023-04-08T11:27:40;21.45;;;15.50;;
34489;SDS011;20730;49.372;7.324;2023-04-08T11:30:07;22.15;;;16.08;;
34489;SDS011;20730;49.372;7.324;2023-04-08T11:32:35;24.58;;;16.95;;
34489;SDS011;20730;49.372;7.324;2023-04-08T11:35:05;21.08;;;15.57;;
34489;SDS011;20730;49.372;7.324;2023-04-08T11:37:36;18.55;;;15.10;;
34489;SDS011;20730;49.372;7.324;2023-04-08T11:40:08;21.20;;;15.85;;
34489;SDS011;20730;49.372;7.324;2023-04-08T11:42:35;22.30;;;15.82;;
34489;SDS011;20730;49.372;7.324;2023-04-08T11:45:10;21.23;;;15.13;;
34489;SDS011;20730;49.372;7.324;2023-04-08T11:47:38;24.38;;;16.13;;
34489;SDS011;20730;49.372;7.324;2023-04-08T11:50:05;23.52;;;15.65;;
34489;SDS011;20730;49.372;7.324;2023-04-08T11:52:39;24.80;;;16.52;;
34489;SDS011;20730;49.372;7.324;2023-04-08T11:55:30;21.95;;;15.05;;
34489;SDS011;20730;49.372;7.324;2023-04-08T11:58:01;23.05;;;16.02;;
34489;SDS011;20730;49.372;7.324;2023-04-08T12:00:29;25.88;;;16.92;;
34489;SDS011;20730;49.372;7.324;2023-04-08T12:02:56;24.70;;;17.60;;
34489;SDS011;20730;49.372;7.324;2023-04-08T12:05:23;25.42;;;17.50;;
34489;SDS011;20730;49.372;7.324;2023-04-08T12:07:50;24.55;;;16.70;;
34489;SDS011;20730;49.372;7.324;2023-04-08T12:10:18;25.02;;;18.90;;
34489;SDS011;20730;49.372;7.324;2023-04-08T12:12:44;24.73;;;17.65;;
34489;SDS011;20730;49.372;7.324;2023-04-08T12:15:11;26.45;;;17.60;;
34489;SDS011;20730;49.372;7.324;2023-04-08T12:17:38;24.00;;;16.55;;
34489;SDS011;20730;49.372;7.324;2023-04-08T12:20:06;22.75;;;16.92;;
34489;SDS011;20730;49.372;7.324;2023-04-08T12:22:33;24.90;;;16.23;;
34489;SDS011;20730;49.372;7.324;2023-04-08T12:25:00;23.33;;;16.23;;
34489;SDS011;20730;49.372;7.324;2023-04-08T12:27:29;21.45;;;15.20;;
34489;SDS011;20730;49.372;7.324;2023-04-08T12:29:59;21.05;;;15.30;;
34489;SDS011;20730;49.372;7.324;2023-04-08T12:32:26;20.05;;;15.73;;
34489;SDS011;20730;49.372;7.324;2023-04-08T12:34:53;22.92;;;15.93;;
34489;SDS011;20730;49.372;7.324;2023-04-08T12:37:20;20.85;;;15.13;;
34489;SDS011;20730;49.372;7.324;2023-04-08T12:39:47;23.52;;;16.27;;
34489;SDS011;20730;49.372;7.324;2023-04-08T12:42:14;23.23;;;14.57;;
34489;SDS011;20730;49.372;7.324;2023-04-08T12:44:40;20.60;;;15.73;;
34489;SDS011;20730;49.372;7.324;2023-04-08T12:47:07;18.48;;;13.98;;
34489;SDS011;20730;49.372;7.324;2023-04-08T12:49:34;19.88;;;14.45;;
34489;SDS011;20730;49.372;7.324;2023-04-08T12:54:42;17.42;;;13.10;;
34489;SDS011;20730;49.372;7.324;2023-04-08T12:57:09;17.25;;;12.57;;
34489;SDS011;20730;49.372;7.324;2023-04-08T12:59:35;16.83;;;11.07;;
34489;SDS011;20730;49.372;7.324;2023-04-08T13:02:03;14.98;;;10.90;;
34489;SDS011;20730;49.372;7.324;2023-04-08T13:04:30;17.52;;;10.65;;
34489;SDS011;20730;49.372;7.324;2023-04-08T13:06:57;13.90;;;10.20;;
34489;SDS011;20730;49.372;7.324;2023-04-08T13:09:25;14.65;;;10.45;;
34489;SDS011;20730;49.372;7.324;2023-04-08T13:11:52;14.30;;;9.95;;
34489;SDS011;20730;49.372;7.324;2023-04-08T13:14:19;17.40;;;10.68;;
34489;SDS011;20730;49.372;7.324;2023-04-08T13:16:45;14.02;;;10.45;;
34489;SDS011;20730;49.372;7.324;2023-04-08T13:19:13;13.52;;;10.10;;
34489;SDS011;20730;49.372;7.324;2023-04-08T13:21:40;14.52;;;10.70;;
34489;SDS011;20730;49.372;7.324;2023-04-08T13:24:08;13.18;;;9.23;;
34489;SDS011;20730;49.372;7.324;2023-04-08T13:26:35;13.48;;;9.35;;
34489;SDS011;20730;49.372;7.324;2023-04-08T13:29:02;14.15;;;9.15;;
34489;SDS011;20730;49.372;7.324;2023-04-08T13:31:30;12.68;;;8.23;;
34489;SDS011;20730;49.372;7.324;2023-04-08T13:33:57;11.95;;;7.53;;
34489;SDS011;20730;49.372;7.324;2023-04-08T13:36:24;12.13;;;7.43;;
34489;SDS011;20730;49.372;7.324;2023-04-08T13:38:52;13.15;;;7.53;;
34489;SDS011;20730;49.372;7.324;2023-04-08T13:41:19;8.02;;;5.18;;
34489;SDS011;20730;49.372;7.324;2023-04-08T13:43:50;9.10;;;5.93;;
34489;SDS011;20730;49.372;7.324;2023-04-08T13:46:17;12.65;;;6.93;;
34489;SDS011;20730;49.372;7.324;2023-04-08T13:48:44;11.95;;;7.00;;
34489;SDS011;20730;49.372;7.324;2023-04-08T13:51:11;10.68;;;5.85;;
34489;SDS011;20730;49.372;7.324;2023-04-08T13:53:38;12.23;;;7.18;;
34489;SDS011;20730;49.372;7.324;2023-04-08T13:56:05;10.63;;;7.95;;
34489;SDS011;20730;49.372;7.324;2023-04-08T13:58:32;13.82;;;7.68;;
34489;SDS011;20730;49.372;7.324;2023-04-08T14:00:59;10.43;;;7.30;;
34489;SDS011;20730;49.372;7.324;2023-04-08T14:03:26;11.80;;;7.55;;
34489;SDS011;20730;49.372;7.324;2023-04-08T14:05:53;13.95;;;7.63;;
34489;SDS011;20730;49.372;7.324;2023-04-08T14:08:20;13.80;;;8.63;;
34489;SDS011;20730;49.372;7.324;2023-04-08T14:10:51;16.70;;;9.38;;
34489;SDS011;20730;49.372;7.324;2023-04-08T14:13:19;11.98;;;8.85;;
34489;SDS011;20730;49.372;7.324;2023-04-08T14:15:46;15.68;;;10.20;;
34489;SDS011;20730;49.372;7.324;2023-04-08T14:18:14;13.20;;;8.80;;
34489;SDS011;20730;49.372;7.324;2023-04-08T14:20:43;14.50;;;9.40;;
34489;SDS011;20730;49.372;7.324;2023-04-08T14:23:10;12.45;;;8.82;;
34489;SDS011;20730;49.372;7.324;2023-04-08T14:25:39;15.52;;;10.30;;
34489;SDS011;20730;49.372;7.324;2023-04-08T14:28:06;13.02;;;10.05;;
34489;SDS011;20730;49.372;7.324;2023-04-08T14:30:33;14.02;;;10.15;;
34489;SDS011;20730;49.372;7.324;2023-04-08T14:33:01;15.27;;;10.38;;
34489;SDS011;20730;49.372;7.324;2023-04-08T14:35:30;14.48;;;10.80;;
34489;SDS011;20730;49.372;7.324;2023-04-08T14:37:58;14.35;;;10.57;;
34489;SDS011;20730;49.372;7.324;2023-04-08T14:40:25;15.38;;;9.95;;
34489;SDS011;20730;49.372;7.324;2023-04-08T14:42:52;14.98;;;10.30;;
34489;SDS011;20730;49.372;7.324;2023-04-08T14:45:19;15.27;;;10.70;;
34489;SDS011;20730;49.372;7.324;2023-04-08T14:47:46;12.80;;;9.70;;
34489;SDS011;20730;49.372;7.324;2023-04-08T14:50:13;14.30;;;9.68;;
34489;SDS011;20730;49.372;7.324;2023-04-08T14:52:40;13.10;;;9.93;;
34489;SDS011;20730;49.372;7.324;2023-04-08T14:55:07;13.68;;;9.73;;
34489;SDS011;20730;49.372;7.324;2023-04-08T14:57:34;14.90;;;10.20;;